Latest Weather Observations for Tuggeranong

IDN60801

Issued at 10:03 am EST Saturday 29 August 2015 (issued every 30 minutes, with the page automatically refreshed every 10 minutes)

About weather observations | Map of weather stations | Latest weather observations for NSW | Other Formats
Station Details ID: 070339 Name: TUGGERANONG (ISABELLA PLAINS) AWS Lat: -35.42 Lon: 149.09 Height: 586.7 m
Data from the previous 72 hours. | See also: Recent months at Tuggeranong
Date/Time
EST
Temp
°C
App
Temp
°C
Dew
Point
Rel
Hum
%
Delta-T
°C
Wind Press
QNH
hPa
Press
MSL
hPa
Rain
since 9 am
mm
Dir
 
Spd
km/h
Gust
km/h
Spd
kts
Gust
kts
29/10:00am 10.6 6.1 2.2 56 3.7 NNW 15 20 8 11 1021.2 1021.9 0.0
29/09:30am 9.2 5.3 3.2 66 2.7 NW 13 20 7 11 1021.7 1022.4 0.0
29/09:00am 8.8 5.4 3.8 71 2.2 NW 11 17 6 9 1021.7 1022.4 0.2
29/08:30am 7.6 4.3 4.4 80 1.4 N 11 17 6 9 1021.8 1022.6 0.2
29/08:00am 6.9 3.1 4.0 82 1.3 N 13 17 7 9 1021.8 1022.6 0.2
29/07:30am 5.7 2.2 3.7 87 0.9 N 11 15 6 8 1021.6 1022.3 0.2
29/07:00am 5.2 1.6 3.2 87 0.9 N 11 15 6 8 1021.5 1022.2 0.2
29/06:30am 4.1 1.1 2.3 88 0.7 NNW 7 11 4 6 1021.4 1022.1 0.2
29/06:00am 3.8 0.9 1.7 86 0.9 NE 6 7 3 4 1021.2 1021.9 0.2
29/05:30am 5.5 2.3 2.8 83 1.2 NW 9 17 5 9 1020.9 1021.7 0.2
29/05:00am 5.0 2.4 4.1 94 0.4 NNW 7 15 4 8 1020.9 1021.7 0.2
29/04:30am 3.4 1.7 1.8 89 0.7 CALM 0 4 0 2 1020.9 1021.7 0.2
29/04:00am 4.8 1.7 3.5 91 0.6 NNW 9 11 5 6 1021.1 1021.8 0.2
29/03:30am 4.2 2.4 3.2 93 0.4 NW 2 7 1 4 1021.2 1021.9 0.2
29/03:00am 4.5 1.7 3.3 92 0.5 NW 7 11 4 6 1021.4 1022.1 0.2
29/02:30am 5.2 2.5 3.9 91 0.6 NNW 7 9 4 5 1021.6 1022.3 0.2
29/02:00am 4.5 2.8 3.8 95 0.3 SE 2 7 1 4 1022.0 1022.8 0.2
29/01:30am 5.1 3.8 4.1 93 0.4 CALM 0 0 0 0 1022.1 1022.9 0.2
29/01:00am 6.4 5.0 5.4 93 0.5 NNE 2 7 1 4 1022.1 1022.9 0.2
29/12:30am 6.8 4.8 6.1 95 0.3 N 6 9 3 5 1022.0 1022.8 0.2
29/12:00am 6.8 5.1 6.1 95 0.3 NNE 4 7 2 4 1022.2 1023.0 0.2
 
Date/Time
EST
Temp
°C
App
Temp
°C
Dew
Point
Rel
Hum
%
Delta-T
°C
Wind Press
QNH
hPa
Press
MSL
hPa
Rain
since 9 am
mm
Dir
 
Spd
km/h
Gust
km/h
Spd
kts
Gust
kts
28/11:30pm 6.8 4.7 5.9 94 0.4 NNE 6 9 3 5 1022.3 1023.1 0.2
28/11:00pm 7.1 4.9 6.2 94 0.4 N 7 13 4 7 1022.4 1023.2 0.2
28/10:30pm 7.5 6.0 6.8 95 0.3 N 4 6 2 3 1022.4 1023.2 0.2
28/10:00pm 7.8 7.1 6.9 94 0.4 CALM 0 0 0 0 1022.4 1023.2 0.2
28/09:30pm 8.0 7.3 7.1 94 0.4 CALM 0 2 0 1 1022.6 1023.4 0.2
28/09:00pm 7.9 7.2 7.1 95 0.4 CALM 0 0 0 0 1022.4 1023.2 0.0
28/08:30pm 8.0 7.3 6.8 92 0.6 CALM 0 0 0 0 1022.3 1023.1 0.0
28/08:00pm 8.1 6.5 6.4 89 0.8 WSW 4 6 2 3 1022.1 1022.9 0.0
28/07:30pm 8.3 6.1 6.4 88 0.9 E 7 9 4 5 1021.9 1022.7 0.0
28/07:00pm 8.4 6.2 6.2 86 1.0 E 7 9 4 5 1021.6 1022.3 0.0
28/06:30pm 8.9 6.4 6.7 86 1.1 NE 9 11 5 6 1021.4 1022.1 0.0
28/06:00pm 9.3 7.1 6.4 82 1.4 E 7 11 4 6 1021.1 1021.8 0.0
28/05:30pm 9.9 7.4 6.4 79 1.7 ENE 9 15 5 8 1020.6 1021.4 0.0
28/05:00pm 10.3 7.9 6.8 79 1.7 ENE 9 13 5 7 1020.4 1021.2 0.0
28/04:30pm 10.6 8.6 7.3 80 1.6 NE 7 15 4 8 1020.3 1021.1 0.0
28/04:00pm 11.0 9.1 7.5 79 1.7 NNW 7 11 4 6 1020.1 1020.8 0.0
28/03:30pm 11.3 8.5 7.0 75 2.1 NW 11 15 6 8 1019.9 1020.6 0.0
28/03:00pm 11.9 7.9 6.8 71 2.5 NNW 17 24 9 13 1019.7 1020.4 0.0
28/02:30pm 12.6 8.6 6.6 67 3.0 NW 17 24 9 13 1019.5 1020.2 0.0
28/02:00pm 12.9 9.4 5.6 61 3.5 NW 13 22 7 12 1019.4 1020.1 0.0
28/01:30pm 13.6 10.9 3.9 52 4.6 NW 7 13 4 7 1019.4 1020.1 0.0
28/01:00pm 13.7 11.7 4.6 54 4.3 NE 4 11 2 6 1019.6 1020.3 0.0
28/12:30pm 13.2 10.2 4.1 54 4.3 WNW 9 17 5 9 1019.9 1020.6 0.0
28/12:00pm 13.1 8.8 3.2 51 4.5 S 15 22 8 12 1020.2 1020.9 0.0
28/11:30am 12.9 9.0 3.3 52 4.4 S 13 24 7 13 1020.5 1021.3 0.0
28/11:00am 12.6 7.5 3.3 53 4.3 S 19 28 10 15 1020.7 1021.5 0.0
28/10:30am 11.8 8.9 4.5 61 3.4 SE 9 19 5 10 1020.6 1021.4 0.0
28/10:00am 10.8 8.4 5.1 68 2.7 W 7 11 4 6 1020.5 1021.3 0.0
28/09:30am 10.3 8.6 5.9 74 2.1 NE 4 7 2 4 1020.4 1021.2 0.0
28/09:00am 8.5 6.7 5.4 81 1.4 N 4 7 2 4 1020.5 1021.3 2.4
28/08:30am 7.1 5.2 4.9 86 1.0 NNE 4 7 2 4 1020.5 1021.3 2.2
28/08:00am 5.8 4.8 5.8 100 0.0 CALM 0 2 0 1 1020.0 1020.7 2.2
28/07:30am 5.0 2.7 4.9 99 0.0 E 6 7 3 4 1019.7 1020.4 2.2
28/07:00am 4.7 3.5 4.6 99 0.0 CALM 0 0 0 0 1019.4 1020.1 2.2
28/06:30am 5.0 3.5 4.9 99 0.0 ENE 2 6 1 3 1019.0 1019.8 2.2
28/06:00am 4.9 2.4 4.8 99 0.0 E 7 11 4 6 1018.6 1019.3 2.0
28/05:30am 4.4 2.0 4.4 100 0.0 ESE 6 7 3 4 1018.2 1018.9 2.0
28/05:00am 4.0 1.9 3.9 99 0.0 NNE 4 7 2 4 1018.0 1018.7 2.0
28/04:30am 3.0 1.4 2.7 98 0.1 CALM 0 6 0 3 1017.8 1018.5 2.0
28/04:00am 3.2 1.3 2.6 96 0.2 NE 2 6 1 3 1017.5 1018.2 2.0
28/03:30am 3.6 1.0 3.0 96 0.3 E 6 7 3 4 1017.3 1018.0 2.0
28/03:00am 4.1 1.4 3.7 97 0.2 ENE 7 9 4 5 1017.1 1017.8 2.0
28/02:30am 4.0 1.2 3.3 95 0.3 E 7 11 4 6 1017.5 1018.2 2.0
28/02:00am 4.3 1.5 3.4 94 0.4 E 7 9 4 5 1017.3 1018.0 2.0
28/01:30am 4.9 1.9 3.9 93 0.4 E 9 11 5 6 1017.5 1018.2 2.0
28/01:00am 5.2 2.2 3.9 91 0.6 E 9 11 5 6 1017.5 1018.2 2.0
28/12:30am 6.0 4.7 4.0 87 0.9 CALM 0 7 0 4 1017.7 1018.4 2.0
28/12:00am 7.3 5.0 4.8 84 1.1 NNW 6 11 3 6 1017.7 1018.4 2.0
 
Date/Time
EST
Temp
°C
App
Temp
°C
Dew
Point
Rel
Hum
%
Delta-T
°C
Wind Press
QNH
hPa
Press
MSL
hPa
Rain
since 9 am
mm
Dir
 
Spd
km/h
Gust
km/h
Spd
kts
Gust
kts
27/11:30pm 7.5 5.1 4.3 80 1.4 NNW 6 9 3 5 1017.8 1018.5 2.0
27/11:00pm 8.0 5.4 4.4 78 1.6 N 7 11 4 6 1017.8 1018.5 2.0
27/10:30pm 8.0 6.0 4.2 77 1.7 N 4 9 2 5 1017.9 1018.6 2.0
27/10:00pm 8.0 5.0 4.2 77 1.7 NW 9 13 5 7 1018.1 1018.8 2.0
27/09:30pm 7.4 4.0 4.0 79 1.5 NW 11 15 6 8 1018.0 1018.7 2.0
27/09:00pm 7.4 4.0 3.8 78 1.6 NW 11 17 6 9 1017.8 1018.5 2.0
27/08:30pm 7.8 4.4 4.2 78 1.6 NNW 11 17 6 9 1017.6 1018.3 2.0
27/08:00pm 8.1 4.8 4.3 77 1.7 NNW 11 17 6 9 1017.5 1018.2 2.0
27/07:30pm 8.5 6.0 4.5 76 1.8 NNW 7 15 4 8 1017.1 1017.8 2.0
27/07:00pm 9.1 5.9 4.9 75 1.9 NW 11 17 6 9 1016.7 1017.4 2.0
27/06:30pm 9.5 5.2 5.1 74 2.1 NW 17 24 9 13 1016.5 1017.2 2.0
27/06:00pm 10.3 6.1 5.5 72 2.3 NW 17 22 9 12 1016.2 1016.9 2.0
27/05:30pm 11.0 7.0 4.9 66 2.9 NW 15 22 8 12 1016.0 1016.7 2.0
27/05:00pm 11.7 8.2 5.6 66 2.9 NW 13 20 7 11 1015.8 1016.4 2.0
27/04:30pm 12.2 8.8 6.0 66 3.0 NW 13 19 7 10 1015.7 1016.3 2.0
27/04:00pm 12.6 9.2 5.8 63 3.3 WNW 13 19 7 10 1015.4 1016.1 2.0
27/03:30pm 12.8 8.6 5.9 63 3.4 NW 17 26 9 14 1015.5 1016.2 2.0
27/03:00pm 14.2 10.5 6.3 59 3.9 NW 15 20 8 11 1015.4 1016.1 2.0
27/02:30pm 13.1 8.4 6.0 62 3.5 NW 20 33 11 18 1015.7 1016.3 2.0
27/02:00pm 12.7 8.1 6.5 66 3.1 WNW 20 30 11 16 1016.1 1016.8 1.8
27/01:30pm 13.6 9.4 7.4 66 3.1 NW 19 33 10 18 1016.3 1017.0 1.8
27/01:00pm 12.6 8.4 7.3 70 2.7 NNW 19 32 10 17 1016.7 1017.4 1.8
27/12:30pm 13.4 9.2 7.6 68 2.9 NNW 19 26 10 14 1016.8 1017.5 1.6
27/12:00pm 12.3 10.6 10.0 86 1.2 WNW 9 17 5 9 1017.3 1018.0 1.6
27/11:30am 11.5 9.9 10.1 91 0.7 NNW 9 13 5 7 1017.9 1018.6 1.2
27/11:00am 11.5 9.4 9.8 89 0.9 NNW 11 20 6 11 1018.6 1019.3 1.0
27/10:30am 11.0 9.8 9.4 90 0.8 NW 6 9 3 5 1018.8 1019.6 0.8
27/10:00am 10.2 9.8 9.9 98 0.2 NW 2 7 1 4 1019.1 1019.9 0.4
27/09:30am 9.9 9.5 9.6 98 0.2 WNW 2 6 1 3 1019.4 1020.1 0.2
27/09:00am 9.5 8.1 9.4 99 0.1 WSW 7 9 4 5 1019.4 1020.1 1.0
27/08:30am 9.3 9.1 9.2 99 0.1 CALM 0 6 0 3 1019.6 1020.3 0.8
27/08:00am 9.2 9.0 9.1 99 0.1 CALM 0 0 0 0 1019.8 1020.5 0.6
27/07:30am 9.1 8.9 9.0 99 0.1 CALM 0 0 0 0 1019.4 1020.1 0.4
27/07:00am 8.9 8.6 8.8 99 0.1 CALM 0 0 0 0 1019.3 1020.0 0.2
27/06:30am 8.9 8.6 8.6 98 0.2 CALM 0 0 0 0 1019.4 1020.1 0.0
27/06:00am 9.0 8.6 8.4 96 0.3 CALM 0 0 0 0 1019.3 1020.0 0.0
27/05:30am 9.2 7.7 8.3 94 0.4 W 6 7 3 4 1019.3 1020.0 0.0
27/05:00am 9.5 8.9 7.6 88 0.9 CALM 0 4 0 2 1019.3 1020.0 0.0
27/04:30am 9.7 9.1 7.5 86 1.1 CALM 0 6 0 3 1019.4 1020.1 0.0
27/04:00am 10.0 8.3 7.6 85 1.2 S 6 9 3 5 1019.5 1020.2 0.0
27/03:30am 9.6 7.7 7.5 87 1.0 NW 7 9 4 5 1019.5 1020.2 0.0
27/03:00am 9.3 8.7 7.3 87 1.0 CALM 0 0 0 0 1019.5 1020.2 0.0
27/02:30am 9.7 9.1 7.3 85 1.2 CALM 0 0 0 0 1020.2 1020.9 0.0
27/02:00am 9.8 7.9 7.4 85 1.2 S 7 9 4 5 1020.5 1021.3 0.0
27/01:30am 10.2 8.2 7.3 82 1.4 SSE 7 11 4 6 1020.8 1021.6 0.0
27/01:00am 10.4 7.3 7.1 80 1.6 S 13 19 7 10 1021.2 1021.9 0.0
27/12:30am 10.8 7.7 7.3 79 1.7 SSE 13 19 7 10 1021.6 1022.3 0.0
27/12:00am 10.8 8.1 7.3 79 1.7 SSE 11 17 6 9 1021.7 1022.4 0.0
 
Date/Time
EST
Temp
°C
App
Temp
°C
Dew
Point
Rel
Hum
%
Delta-T
°C
Wind Press
QNH
hPa
Press
MSL
hPa
Rain
since 9 am
mm
Dir
 
Spd
km/h
Gust
km/h
Spd
kts
Gust
kts
26/11:30pm 11.0 7.9 7.1 77 1.9 SSE 13 19 7 10 1021.9 1022.7 0.0
26/11:00pm 11.1 8.3 7.0 76 2.0 SE 11 17 6 9 1022.0 1022.8 0.0
26/10:30pm 10.1 7.7 7.2 82 1.4 ESE 9 13 5 7 1022.2 1023.0 0.0
26/10:00pm 10.6 8.2 7.1 79 1.7 SSE 9 15 5 8 1022.6 1023.4 0.0
26/09:30pm 11.1 8.4 7.2 77 1.9 SSE 11 17 6 9 1022.9 1023.6 0.0
26/09:00pm 11.3 7.8 7.2 76 2.0 S 15 22 8 12 1023.0 1023.7 0.0
26/08:30pm 11.5 7.6 7.2 75 2.1 SSE 17 24 9 13 1022.9 1023.6 0.0
26/08:00pm 11.5 8.4 7.4 76 2.0 SSE 13 22 7 12 1023.1 1023.8 0.0
26/07:30pm 11.6 8.5 7.3 75 2.1 SSE 13 20 7 11 1023.0 1023.7 0.0
26/07:00pm 11.6 8.9 7.3 75 2.1 SSE 11 19 6 10 1022.9 1023.6 0.0
26/06:30pm 11.8 9.0 7.1 73 2.3 SSE 11 17 6 9 1022.6 1023.4 0.0
26/06:00pm 12.4 8.5 7.3 71 2.5 SSE 17 24 9 13 1022.4 1023.2 0.0
26/05:30pm 12.9 9.0 7.1 68 2.9 S 17 24 9 13 1022.0 1022.8 0.0
26/05:00pm 13.2 9.3 7.0 66 3.1 S 17 24 9 13 1021.7 1022.4 0.0
26/04:30pm 13.3 9.0 6.9 65 3.2 S 19 33 10 18 1021.4 1022.1 0.0
26/04:00pm 13.8 9.6 7.3 65 3.3 S 19 33 10 18 1021.2 1021.9 0.0
26/03:30pm 13.8 9.6 7.3 65 3.3 S 19 30 10 16 1020.9 1021.7 0.0
26/03:00pm 13.2 8.4 7.4 68 2.9 S 22 33 12 18 1021.2 1021.9 0.0
26/02:30pm 13.0 8.6 7.2 68 2.9 S 20 28 11 15 1021.7 1022.4 0.0
26/02:00pm 12.8 8.3 6.8 67 3.0 S 20 33 11 18 1022.1 1022.9 0.0
26/01:30pm 13.3 8.0 6.9 65 3.2 S 24 37 13 20 1022.1 1022.9 0.0
26/01:00pm 13.8 8.9 7.1 64 3.4 SSE 22 37 12 20 1022.5 1023.3 0.0
26/12:30pm 13.2 7.9 7.0 66 3.1 S 24 37 13 20 1022.7 1023.5 0.0
26/12:00pm 12.2 6.3 5.8 65 3.1 S 26 39 14 21 1023.3 1024.1 0.0
26/11:30am 11.9 5.7 6.0 67 2.9 S 28 39 15 21 1023.6 1024.4 0.0
26/11:00am 11.5 5.1 5.4 66 2.9 S 28 44 15 24 1023.8 1024.6 0.0
26/10:30am 11.1 5.5 5.2 67 2.8 SSE 24 37 13 20 1023.9 1024.7 0.0

Other Formats:

Comma delimited format used in spreadsheet applications
http://www.bom.gov.au/fwo/IDN60801/IDN60801.94925.axf

JavaScript Object Notation format (JSON) in row-major order
http://www.bom.gov.au/fwo/IDN60801/IDN60801.94925.json